Brownstown Township, MI

8:01 AM EST on February 28, 2015 (GMT -0500)
Grosse Ile Municipal | Change Station
CLOSE
Current Station
Airport
Location: Grosse Ile,
Elevation: 591 ft
Nearby Weather Stations

Elev 591 ft 42.10 °N, 83.16 °W | Updated 7 minutes ago

Partly Cloudy
Partly Cloudy
-2 °F
Feels Like -2 °F
N
0
Wind Variable Wind from North

Today
High -- | Low -- °F
--% Chance of Precip.
Yesterday
High -- | Low -- °F
Precip. -- in
7:10 AM 6:21 PM
Waxing Gibbous, 77% visible
Pressure 30.74 in
Visibility 10.0 miles
Clouds Clear
Dew Point -8 °F
Humidity 78%
Rainfall 0.00 in
Snow Depth Not available.
UV 0 out of 12
Pollen .40 out of 12
Air Quality Not available.
Flu Activity Not available.
METAR KONZ 281254Z AUTO 00000KT 10SM CLR M19/M22 A3074 RMK AO2

More Conditions Fewer Conditions

Pressure 30.74 in
Visibility 10.0 miles
Clouds Clear
Dew Point -8 °F
Humidity 78%
Rainfall 0.00 in
Snow Depth Not available.
UV 0 out of 12
Pollen .40 out of 12
Air Quality Not available.
Flu Activity Not available.
METAR KONZ 281254Z AUTO 00000KT 10SM CLR M19/M22 A3074 RMK AO2

More Conditions Fewer Conditions

10-Day Weather Forecast

Almanac

Astronomy

Feb. 28, 2015 Rise Set
Actual Time
Civil Twilight
Nautical Twilight
Astronomical Twilight
Moon
Length of Visible Light
Length of Day
Tomorrow will be .
, % of the Moon is Illuminated

Today's Extremes

State Highs State Lows

Community

WunderPhotos

Upload Photos

1,801,002 photos uploaded!

WunderBlogs® & News

Nearby

Air Quality

  Air Quality AQ Index Pollutant
Not available.

Snow Depth

Station Depth Elevation

Earthquake Activity

City Distance Mag. Time & Date
Minimum magnitude displayed is 2.5.

Coastal Water Temperatures

Place Temperature

Nearby Weather Stations